Time;durP1;ratioP1;P1;durP2;ratioP2;P2;SDS_P1;SDS_P2;PMS_P1;PMS_P2;Temp;Humidity;BMP_temperature;BMP_pressure;BME280_temperature;BME280_humidity;BME280_pressure;Samples;Min_cycle;Max_cycle;Signal;HPM_P1;HPM_P2
2022/03/27 00:00:52;;;;;;;14.68;8.57;;;6.40;99.90;;;;;;5089856;28;20398;-50
2022/03/27 00:03:18;;;;;;;16.15;9.18;;;6.40;99.90;;;;;;5091059;28;20040;-49
2022/03/27 00:05:43;;;;;;;13.88;8.15;;;6.40;99.90;;;;;;5090906;28;20047;-51
2022/03/27 00:08:09;;;;;;;14.48;8.77;;;6.10;99.90;;;;;;5091202;28;20051;-50
2022/03/27 00:11:23;;;;;;;17.00;9.18;;;6.30;99.90;;;;;;5091261;28;20416;-48
2022/03/27 00:13:22;;;;;;;14.73;8.25;;;6.30;99.90;;;;;;5090670;28;20094;-50
2022/03/27 00:15:47;;;;;;;14.13;8.02;;;6.40;99.90;;;;;;5090822;28;20124;-48
2022/03/27 00:18:13;;;;;;;13.30;8.02;;;6.30;99.90;;;;;;5091030;28;20072;-52
2022/03/27 00:20:39;;;;;;;16.67;8.43;;;6.40;99.90;;;;;;5072306;28;20051;-50
2022/03/27 00:23:04;;;;;;;15.75;8.05;;;6.40;99.90;;;;;;5090917;28;20047;-48
2022/03/27 00:25:30;;;;;;;14.60;8.68;;;6.30;99.90;;;;;;5090852;28;20094;-50
2022/03/27 00:27:56;;;;;;;12.88;6.97;;;6.30;99.90;;;;;;5090876;28;20044;-47
2022/03/27 00:30:21;;;;;;;15.80;7.75;;;7.10;99.90;;;;;;5090991;28;20048;-49
2022/03/27 00:32:47;;;;;;;13.60;8.10;;;6.70;99.90;;;;;;5090340;28;20048;-51
2022/03/27 00:35:13;;;;;;;13.88;6.85;;;6.30;99.90;;;;;;5072139;28;20127;-48
2022/03/27 00:37:38;;;;;;;13.50;7.57;;;6.30;99.90;;;;;;5090595;28;20173;-51
2022/03/27 00:40:04;;;;;;;12.35;7.10;;;6.20;99.90;;;;;;5090371;28;20086;-52
2022/03/27 00:42:30;;;;;;;13.20;7.60;;;6.20;99.90;;;;;;5090650;28;20671;-49
2022/03/27 00:44:56;;;;;;;10.75;6.88;;;6.70;99.90;;;;;;5090118;28;20055;-53
2022/03/27 00:47:22;;;;;;;12.07;6.55;;;6.10;99.90;;;;;;5090296;28;20040;-51
2022/03/27 00:49:48;;;;;;;11.30;6.15;;;6.10;99.90;;;;;;5090453;28;20052;-52
2022/03/27 00:52:13;;;;;;;12.45;5.97;;;6.00;99.90;;;;;;5090290;28;20048;-49
2022/03/27 00:54:39;;;;;;;14.05;6.22;;;6.00;99.90;;;;;;5090179;28;20048;-49
2022/03/27 00:57:05;;;;;;;14.57;6.75;;;5.90;99.90;;;;;;5089657;28;20042;-51
2022/03/27 00:59:31;;;;;;;12.00;6.55;;;5.90;99.90;;;;;;5089925;28;20047;-50
2022/03/27 01:01:56;;;;;;;9.45;5.93;;;5.80;99.90;;;;;;5089747;28;20044;-49
2022/03/27 01:04:22;;;;;;;13.10;5.88;;;6.40;99.90;;;;;;5090089;28;20048;-51
2022/03/27 01:06:48;;;;;;;11.52;5.63;;;5.60;99.90;;;;;;5090130;28;20356;-52
2022/03/27 01:09:37;;;;;;;10.73;6.47;;;5.60;99.90;;;;;;5089826;28;20094;-49
2022/03/27 01:12:21;;;;;;;10.95;5.35;;;5.30;99.90;;;;;;5089722;28;20044;-49
2022/03/27 01:14:48;;;;;;;8.68;5.10;;;5.40;99.90;;;;;;5089414;28;20076;-47
2022/03/27 01:17:19;;;;;;;12.02;6.07;;;5.20;99.90;;;;;;5089725;28;20485;-50
2022/03/27 01:19:48;;;;;;;11.73;5.57;;;5.10;99.90;;;;;;5089683;28;20534;-48
2022/03/27 01:22:16;;;;;;;11.43;5.15;;;5.00;99.90;;;;;;5090048;28;20035;-50
2022/03/27 01:24:46;;;;;;;11.27;5.38;;;4.80;99.90;;;;;;5089893;28;20044;-50
2022/03/27 01:27:12;;;;;;;11.50;6.50;;;4.70;99.90;;;;;;5089729;28;20049;-52
2022/03/27 01:29:38;;;;;;;9.98;5.55;;;5.70;99.90;;;;;;5089619;28;20055;-48
2022/03/27 01:32:06;;;;;;;11.43;6.25;;;4.70;99.90;;;;;;5089080;28;20040;-51
2022/03/27 01:34:32;;;;;;;11.93;5.53;;;4.70;99.90;;;;;;5089187;28;20066;-48
2022/03/27 01:37:06;;;;;;;18.58;6.60;;;4.60;99.90;;;;;;5089030;28;20091;-52
2022/03/27 01:39:32;;;;;;;10.30;5.43;;;4.60;99.90;;;;;;5089295;28;20036;-49
2022/03/27 01:41:58;;;;;;;12.00;6.60;;;4.30;99.90;;;;;;5089275;28;20032;-48
2022/03/27 01:44:24;;;;;;;13.60;6.43;;;4.20;99.90;;;;;;5089395;28;20555;-49
2022/03/27 01:46:49;;;;;;;10.45;5.85;;;4.30;99.90;;;;;;5089427;28;20088;-48
2022/03/27 01:49:16;;;;;;;11.70;5.38;;;4.20;99.90;;;;;;5088925;28;20705;-47
2022/03/27 01:51:43;;;;;;;8.60;4.72;;;4.20;99.90;;;;;;5089265;28;20375;-48
2022/03/27 01:54:09;;;;;;;8.65;4.97;;;4.10;99.90;;;;;;5089082;28;20043;-48
2022/03/27 01:56:37;;;;;;;10.55;5.40;;;4.10;99.90;;;;;;5089119;28;20110;-50
2022/03/27 01:59:04;;;;;;;12.05;6.45;;;4.00;99.90;;;;;;5088776;28;20135;-48
2022/03/27 02:01:30;;;;;;;10.85;6.13;;;4.00;99.90;;;;;;5089073;28;20052;-48
2022/03/27 02:03:56;;;;;;;12.35;5.63;;;4.00;99.90;;;;;;5088880;28;20051;-48
2022/03/27 02:06:23;;;;;;;11.18;6.10;;;3.70;99.90;;;;;;5089359;28;20547;-49
2022/03/27 02:08:50;;;;;;;12.10;5.55;;;3.70;99.90;;;;;;5089127;28;20043;-49
2022/03/27 02:11:15;;;;;;;10.77;6.50;;;3.80;99.90;;;;;;5089114;28;20436;-49
2022/03/27 02:13:42;;;;;;;15.10;6.88;;;3.70;99.90;;;;;;5088788;28;20040;-48
2022/03/27 02:16:08;;;;;;;18.10;6.65;;;3.70;99.90;;;;;;5088576;28;20090;-47
2022/03/27 02:18:34;;;;;;;12.50;6.25;;;3.70;99.90;;;;;;5088820;28;20505;-51
2022/03/27 02:21:00;;;;;;;15.63;6.93;;;3.50;99.90;;;;;;5088497;28;20449;-49
2022/03/27 02:23:27;;;;;;;11.23;5.60;;;3.50;99.90;;;;;;5089191;28;20047;-49
2022/03/27 02:25:53;;;;;;;12.55;5.85;;;3.50;99.90;;;;;;5093105;28;20700;-48
2022/03/27 02:28:19;;;;;;;13.02;4.93;;;3.30;99.90;;;;;;5092879;28;20039;-51
2022/03/27 02:30:46;;;;;;;8.57;4.65;;;3.40;99.90;;;;;;5092678;28;20040;-49
2022/03/27 02:33:12;;;;;;;9.65;5.20;;;3.30;99.90;;;;;;5092682;28;20032;-48
2022/03/27 02:35:38;;;;;;;6.43;3.58;;;3.20;99.90;;;;;;5092274;28;20497;-49
2022/03/27 02:38:07;;;;;;;19.73;5.15;;;3.10;99.90;;;;;;5092437;28;20752;-49
2022/03/27 02:40:34;;;;;;;6.97;3.85;;;3.10;99.90;;;;;;5092393;28;20071;-49
2022/03/27 02:43:00;;;;;;;8.15;3.85;;;3.60;99.90;;;;;;5092589;28;20058;-48
2022/03/27 02:45:26;;;;;;;10.50;4.32;;;3.20;99.90;;;;;;5074155;28;20039;-49
2022/03/27 02:47:56;;;;;;;7.63;4.00;;;3.20;99.90;;;;;;5092494;28;20066;-49
2022/03/27 02:50:24;;;;;;;8.55;4.50;;;3.10;99.90;;;;;;5073833;28;20392;-51
2022/03/27 02:52:50;;;;;;;7.95;4.63;;;3.20;99.90;;;;;;5092491;28;20048;-50
2022/03/27 02:55:16;;;;;;;9.70;4.40;;;3.20;99.90;;;;;;5092164;28;20238;-49
2022/03/27 02:57:42;;;;;;;11.00;4.80;;;3.20;99.90;;;;;;5092428;28;20563;-50
2022/03/27 03:00:09;;;;;;;11.02;4.75;;;3.10;99.90;;;;;;5092197;28;20040;-48
2022/03/27 03:02:35;;;;;;;10.77;5.00;;;3.20;99.90;;;;;;5092429;28;20043;-48
2022/03/27 03:05:02;;;;;;;10.73;5.25;;;3.20;99.90;;;;;;5092559;28;20089;-51
2022/03/27 03:07:28;;;;;;;15.07;5.60;;;3.20;99.90;;;;;;5092371;28;20386;-48
2022/03/27 03:09:54;;;;;;;16.40;6.53;;;3.20;99.90;;;;;;5092445;28;20036;-51
2022/03/27 03:12:20;;;;;;;25.90;7.22;;;3.30;99.90;;;;;;5092196;28;20044;-49
2022/03/27 03:14:47;;;;;;;15.55;5.93;;;3.30;99.90;;;;;;5092031;28;20093;-52
2022/03/27 03:17:12;;;;;;;13.65;6.38;;;3.40;99.90;;;;;;5092070;28;20044;-48
2022/03/27 03:19:38;;;;;;;19.25;6.55;;;3.40;99.90;;;;;;5092208;28;20119;-50
2022/03/27 03:22:05;;;;;;;21.50;6.45;;;3.50;99.90;;;;;;5092217;28;20435;-48
2022/03/27 03:24:30;;;;;;;21.67;7.47;;;3.50;99.90;;;;;;5091878;28;20044;-48
2022/03/27 03:26:56;;;;;;;22.35;7.18;;;3.60;99.90;;;;;;5092071;28;20036;-49
2022/03/27 03:29:22;;;;;;;22.35;6.82;;;3.40;99.90;;;;;;5091318;28;20847;-48
2022/03/27 03:31:49;;;;;;;24.45;7.20;;;3.70;99.90;;;;;;5073318;28;20040;-49
2022/03/27 03:34:16;;;;;;;21.27;6.50;;;3.60;99.90;;;;;;5090973;28;20498;-51
2022/03/27 03:36:43;;;;;;;20.80;6.80;;;3.60;99.90;;;;;;5090153;28;20062;-48
2022/03/27 03:39:09;;;;;;;19.67;7.35;;;4.30;99.90;;;;;;5091456;28;20040;-51
2022/03/27 03:41:35;;;;;;;24.55;8.18;;;3.80;99.90;;;;;;5091374;28;20477;-48
2022/03/27 03:44:00;;;;;;;24.15;7.80;;;3.80;99.90;;;;;;5091571;28;20840;-49
2022/03/27 03:46:26;;;;;;;27.35;9.07;;;4.30;99.90;;;;;;5091395;28;20039;-49
2022/03/27 03:48:51;;;;;;;23.17;8.23;;;3.90;99.90;;;;;;5091550;28;20367;-51
2022/03/27 03:51:17;;;;;;;25.17;8.48;;;4.00;99.90;;;;;;5091418;28;20040;-51
2022/03/27 03:53:43;;;;;;;31.42;11.10;;;4.00;99.90;;;;;;5091310;28;20047;-49
2022/03/27 03:56:11;;;;;;;29.45;9.48;;;4.20;99.90;;;;;;5091146;28;20032;-49
2022/03/27 03:58:37;;;;;;;26.17;8.73;;;5.10;99.90;;;;;;5090885;28;20063;-47
2022/03/27 04:01:03;;;;;;;30.90;8.95;;;4.30;99.90;;;;;;5091258;28;20077;-49
2022/03/27 04:03:29;;;;;;;37.53;9.75;;;4.70;99.90;;;;;;5091014;28;20428;-51
2022/03/27 04:05:55;;;;;;;31.48;8.73;;;4.40;99.90;;;;;;5091071;28;20047;-48
2022/03/27 04:08:21;;;;;;;34.13;8.63;;;4.50;99.90;;;;;;5090954;28;20036;-49
2022/03/27 04:10:46;;;;;;;31.95;9.13;;;5.00;99.90;;;;;;5091049;28;20173;-48
2022/03/27 04:13:12;;;;;;;38.80;9.25;;;4.80;99.90;;;;;;5090913;28;20040;-47
2022/03/27 04:15:38;;;;;;;33.67;7.25;;;4.70;99.90;;;;;;5090810;28;20570;-47
2022/03/27 04:18:04;;;;;;;36.30;7.88;;;4.80;99.90;;;;;;5090521;28;20537;-48
2022/03/27 04:20:30;;;;;;;34.67;8.23;;;4.70;99.90;;;;;;5090589;28;20040;-48
2022/03/27 04:22:56;;;;;;;37.15;7.63;;;4.80;99.90;;;;;;5090775;28;20371;-47
2022/03/27 04:25:22;;;;;;;37.20;8.25;;;4.80;99.90;;;;;;5090309;28;20059;-47
2022/03/27 04:27:48;;;;;;;28.00;6.88;;;4.60;99.90;;;;;;5090283;28;20099;-51
2022/03/27 04:30:14;;;;;;;38.92;6.97;;;4.90;99.90;;;;;;5090625;28;20040;-48
2022/03/27 04:32:40;;;;;;;37.28;7.95;;;5.80;99.90;;;;;;5090235;28;20800;-49
2022/03/27 04:35:08;;;;;;;43.22;8.77;;;5.00;99.90;;;;;;5090156;28;20475;-48
2022/03/27 04:37:44;;;;;;;39.13;7.43;;;5.10;99.90;;;;;;5090481;28;20044;-49
2022/03/27 04:40:13;;;;;;;32.45;7.22;;;4.90;99.90;;;;;;5090475;28;20094;-48
2022/03/27 04:42:40;;;;;;;46.42;7.60;;;5.10;99.90;;;;;;5090314;28;20059;-50
2022/03/27 04:45:06;;;;;;;36.38;7.13;;;5.10;99.90;;;;;;5090503;28;20127;-49
2022/03/27 04:47:32;;;;;;;38.63;7.30;;;5.10;99.90;;;;;;5089560;28;20055;-50
2022/03/27 04:49:58;;;;;;;31.52;7.30;;;5.10;99.90;;;;;;5089969;28;20036;-51
2022/03/27 04:52:23;;;;;;;39.17;8.05;;;5.30;99.90;;;;;;5090128;28;20051;-50
2022/03/27 04:54:49;;;;;;;41.47;7.90;;;5.70;99.90;;;;;;5071566;28;20048;-48
2022/03/27 04:57:15;;;;;;;50.17;7.60;;;5.20;99.90;;;;;;5089742;28;20048;-48
2022/03/27 04:59:41;;;;;;;46.30;6.80;;;5.30;99.90;;;;;;5089530;28;20048;-50
2022/03/27 05:02:07;;;;;;;39.00;7.47;;;5.20;99.90;;;;;;5089926;28;20047;-50
2022/03/27 05:04:33;;;;;;;34.83;6.53;;;5.20;99.90;;;;;;5089893;28;20416;-50
2022/03/27 05:06:58;;;;;;;37.95;7.43;;;5.20;99.90;;;;;;5089883;28;20470;-50
2022/03/27 05:09:24;;;;;;;36.78;7.32;;;5.30;99.90;;;;;;5089626;28;20058;-50
2022/03/27 05:11:50;;;;;;;44.28;8.48;;;5.00;99.90;;;;;;5089354;28;20055;-52
2022/03/27 05:14:16;;;;;;;40.42;7.63;;;5.70;99.90;;;;;;5089854;28;20504;-48
2022/03/27 05:16:41;;;;;;;41.40;6.28;;;5.30;99.90;;;;;;5089416;28;20032;-48
2022/03/27 05:19:07;;;;;;;37.70;7.75;;;5.00;99.90;;;;;;5089630;28;20509;-48
2022/03/27 05:21:34;;;;;;;45.03;9.23;;;5.20;99.90;;;;;;5089323;28;20036;-49
2022/03/27 05:24:01;;;;;;;39.85;7.10;;;5.20;99.90;;;;;;5089407;28;20067;-48
2022/03/27 05:26:27;;;;;;;49.50;7.22;;;5.20;99.90;;;;;;5089117;28;20043;-49
2022/03/27 05:28:54;;;;;;;34.95;7.88;;;5.10;99.90;;;;;;5089292;28;20124;-48
2022/03/27 05:31:20;;;;;;;35.63;7.68;;;5.10;99.90;;;;;;5089271;28;20059;-47
2022/03/27 05:33:45;;;;;;;32.78;5.93;;;5.00;99.90;;;;;;5089120;28;20047;-48
2022/03/27 05:36:11;;;;;;;37.42;7.75;;;5.00;99.90;;;;;;5089310;28;20390;-51
2022/03/27 05:38:38;;;;;;;35.38;6.50;;;4.90;99.90;;;;;;5089403;28;20433;-49
2022/03/27 05:41:04;;;;;;;35.03;9.75;;;5.10;99.90;;;;;;5089686;28;20043;-48
2022/03/27 05:43:30;;;;;;;36.53;8.13;;;5.10;99.90;;;;;;5089484;28;20043;-51
2022/03/27 05:45:56;;;;;;;43.88;9.20;;;5.10;99.90;;;;;;5089132;28;20047;-49
2022/03/27 05:48:21;;;;;;;45.33;8.82;;;5.10;99.90;;;;;;5089282;28;20557;-48
2022/03/27 05:50:47;;;;;;;37.10;8.82;;;6.00;99.90;;;;;;5089184;28;20046;-48
2022/03/27 05:53:13;;;;;;;45.63;10.85;;;5.10;99.90;;;;;;5070914;28;20044;-47
2022/03/27 05:55:39;;;;;;;28.15;9.52;;;5.20;99.90;;;;;;5089034;28;20221;-50
2022/03/27 05:58:05;;;;;;;39.78;9.98;;;5.30;99.90;;;;;;5088462;28;20199;-48
2022/03/27 06:00:31;;;;;;;39.97;9.77;;;5.30;99.90;;;;;;5089273;28;20044;-51
2022/03/27 06:02:56;;;;;;;31.02;10.32;;;5.40;99.90;;;;;;5070598;28;20505;-48
2022/03/27 06:05:23;;;;;;;35.38;10.55;;;5.50;99.90;;;;;;5089269;28;20054;-48
2022/03/27 06:07:50;;;;;;;31.83;10.02;;;5.50;99.90;;;;;;5088694;28;20040;-50
2022/03/27 06:10:20;;;;;;;30.58;9.68;;;5.50;99.90;;;;;;5089104;28;20427;-48
2022/03/27 06:12:46;;;;;;;23.60;9.18;;;5.40;99.90;;;;;;5088595;28;20474;-48
2022/03/27 06:15:13;;;;;;;31.60;10.20;;;5.90;99.90;;;;;;5089016;28;20065;-48
2022/03/27 06:17:41;;;;;;;34.72;9.63;;;6.00;99.90;;;;;;5088621;28;20032;-48
2022/03/27 06:20:08;;;;;;;34.75;9.48;;;6.40;99.90;;;;;;5088782;28;20040;-48
2022/03/27 06:22:34;;;;;;;28.08;9.98;;;6.70;99.90;;;;;;5070715;28;20072;-49
2022/03/27 06:25:01;;;;;;;25.75;9.18;;;6.80;99.90;;;;;;5089306;28;20181;-48
2022/03/27 06:27:26;;;;;;;26.73;8.98;;;7.60;99.90;;;;;;5089195;28;20092;-48
2022/03/27 06:29:52;;;;;;;24.83;7.88;;;6.70;99.90;;;;;;5089242;28;20040;-49
2022/03/27 06:32:18;;;;;;;26.60;8.00;;;7.00;99.90;;;;;;5088609;28;20043;-48
2022/03/27 06:34:43;;;;;;;21.58;9.07;;;7.00;99.90;;;;;;5088722;28;20051;-49
2022/03/27 06:37:09;;;;;;;22.15;7.47;;;6.90;99.90;;;;;;5089110;28;20466;-48
2022/03/27 06:39:35;;;;;;;25.52;7.53;;;7.20;99.90;;;;;;5088868;28;20047;-49
2022/03/27 06:42:00;;;;;;;21.13;7.53;;;7.40;99.90;;;;;;5088748;28;20047;-48
2022/03/27 06:44:26;;;;;;;22.52;7.78;;;7.70;99.90;;;;;;5089074;28;20088;-51
2022/03/27 06:46:51;;;;;;;16.70;6.57;;;7.90;99.90;;;;;;5088174;28;20081;-49
2022/03/27 06:49:17;;;;;;;24.80;7.47;;;8.80;99.90;;;;;;5088870;28;20036;-47
2022/03/27 06:51:43;;;;;;;27.13;7.30;;;8.20;99.90;;;;;;5088433;28;20044;-51
2022/03/27 06:54:09;;;;;;;24.55;6.85;;;8.60;99.90;;;;;;5088607;28;20052;-49
2022/03/27 06:56:36;;;;;;;20.45;6.45;;;8.20;99.90;;;;;;5088649;28;20088;-49
2022/03/27 06:59:02;;;;;;;22.77;7.30;;;8.90;99.90;;;;;;5088003;28;20056;-49
2022/03/27 07:04:12;;;;;;;24.50;6.93;;;8.90;99.90;;;;;;5088437;28;20515;-51
2022/03/27 07:06:42;;;;;;;22.95;7.00;;;8.90;99.90;;;;;;5088516;28;20040;-49
2022/03/27 07:09:09;;;;;;;27.70;6.55;;;9.30;99.90;;;;;;5088482;28;20424;-49
2022/03/27 07:11:36;;;;;;;35.08;7.50;;;8.90;99.90;;;;;;5092459;28;20059;-48
2022/03/27 07:14:02;;;;;;;27.63;6.28;;;9.60;99.90;;;;;;5091617;28;20048;-48
2022/03/27 07:16:30;;;;;;;28.88;6.43;;;10.00;99.90;;;;;;5091954;28;20031;-49
2022/03/27 07:18:56;;;;;;;32.20;7.63;;;9.20;99.90;;;;;;5091871;28;20040;-49
2022/03/27 07:21:21;;;;;;;30.50;6.72;;;9.30;99.90;;;;;;5091872;28;20044;-53
2022/03/27 07:23:47;;;;;;;23.38;6.25;;;9.40;99.90;;;;;;5091588;28;20036;-49
2022/03/27 07:26:13;;;;;;;27.05;6.82;;;9.40;99.90;;;;;;5091444;28;20044;-51
2022/03/27 07:28:39;;;;;;;38.28;9.57;;;9.50;99.90;;;;;;5091785;28;20084;-47
2022/03/27 07:31:04;;;;;;;39.80;8.07;;;10.40;99.90;;;;;;5091590;28;20075;-49
2022/03/27 07:33:30;;;;;;;34.83;7.15;;;9.50;99.90;;;;;;5092047;28;20495;-48
2022/03/27 07:35:57;;;;;;;33.38;7.47;;;9.20;99.90;;;;;;5091238;28;20047;-49
2022/03/27 07:38:22;;;;;;;35.67;7.00;;;9.50;99.90;;;;;;5091349;28;20173;-47
2022/03/27 07:40:49;;;;;;;32.65;6.13;;;9.50;99.90;;;;;;5091486;28;20389;-49
2022/03/27 07:43:15;;;;;;;29.92;6.50;;;9.80;99.90;;;;;;5091257;28;20093;-51
2022/03/27 07:45:41;;;;;;;33.97;5.80;;;9.80;99.90;;;;;;5091704;28;20036;-47
2022/03/27 07:48:07;;;;;;;40.45;7.70;;;9.90;99.90;;;;;;5091102;28;20131;-48
2022/03/27 07:50:33;;;;;;;40.40;9.35;;;10.00;99.90;;;;;;5091579;28;20401;-52
2022/03/27 07:53:00;;;;;;;42.28;9.13;;;10.00;99.90;;;;;;5091481;28;20059;-48
2022/03/27 07:55:26;;;;;;;39.17;9.45;;;10.10;99.90;;;;;;5073418;28;20048;-50
2022/03/27 07:57:52;;;;;;;42.78;9.27;;;10.20;99.90;;;;;;5091050;28;20048;-48
2022/03/27 08:00:18;;;;;;;40.65;8.93;;;10.30;99.90;;;;;;5091342;28;20371;-47
2022/03/27 08:02:44;;;;;;;38.65;9.02;;;10.40;99.90;;;;;;5090957;28;20036;-50
2022/03/27 08:05:11;;;;;;;34.10;10.02;;;10.60;99.90;;;;;;5091022;28;20044;-48
2022/03/27 08:07:37;;;;;;;40.33;9.35;;;10.60;99.90;;;;;;5091142;28;20177;-48
2022/03/27 08:10:04;;;;;;;44.30;10.82;;;10.70;99.90;;;;;;5090994;28;20052;-49
2022/03/27 08:12:30;;;;;;;37.45;8.10;;;10.90;99.90;;;;;;5091205;28;20044;-51
2022/03/27 08:14:56;;;;;;;44.25;9.93;;;11.10;99.90;;;;;;5090777;28;20051;-47
2022/03/27 08:17:22;;;;;;;40.67;8.45;;;11.40;99.90;;;;;;5090526;28;20047;-49
2022/03/27 08:19:49;;;;;;;42.00;10.55;;;11.60;99.90;;;;;;5090774;28;20094;-49
2022/03/27 08:22:15;;;;;;;36.60;8.27;;;12.10;99.90;;;;;;5089707;28;20044;-49
2022/03/27 08:24:41;;;;;;;33.08;8.00;;;12.50;99.90;;;;;;5090824;28;20039;-49
2022/03/27 08:27:08;;;;;;;37.67;8.25;;;13.00;99.90;;;;;;5090601;28;20418;-49
2022/03/27 08:29:39;;;;;;;27.70;6.68;;;14.10;99.90;;;;;;5090846;28;20846;-49
2022/03/27 08:32:07;;;;;;;27.63;8.30;;;14.70;99.90;;;;;;5090186;28;20144;-49
2022/03/27 08:34:38;;;;;;;33.53;9.25;;;15.60;99.90;;;;;;5090633;28;20043;-49
2022/03/27 08:37:08;;;;;;;37.35;9.05;;;16.20;95.40;;;;;;5090152;28;20153;-50
2022/03/27 08:39:34;;;;;;;30.85;7.32;;;16.30;95.00;;;;;;5090537;28;20062;-49
2022/03/27 08:42:01;;;;;;;39.30;7.85;;;16.90;93.70;;;;;;5090624;28;20051;-51
2022/03/27 08:44:28;;;;;;;23.20;6.82;;;17.70;93.20;;;;;;5090289;28;20044;-52
2022/03/27 08:46:56;;;;;;;31.98;8.32;;;19.00;91.70;;;;;;5090538;28;20156;-49
2022/03/27 08:49:54;;;;;;;29.88;8.88;;;20.40;86.00;;;;;;5090027;28;20535;-51
2022/03/27 08:52:21;;;;;;;37.35;9.05;;;21.20;80.30;;;;;;5090367;28;20063;-51
2022/03/27 08:54:52;;;;;;;33.30;8.95;;;21.20;79.90;;;;;;5072012;28;20067;-50
2022/03/27 08:57:42;;;;;;;32.67;8.18;;;22.20;77.20;;;;;;5089972;28;20112;-51
2022/03/27 09:00:09;;;;;;;39.53;8.35;;;23.40;72.10;;;;;;5090244;28;20134;-49
2022/03/27 09:02:34;;;;;;;33.72;8.20;;;24.10;70.70;;;;;;5072182;28;20048;-49
2022/03/27 09:05:03;;;;;;;29.45;7.28;;;23.90;66.90;;;;;;5090087;28;20051;-49
2022/03/27 09:07:29;;;;;;;29.40;7.97;;;23.90;64.40;;;;;;5090433;28;20342;-49
2022/03/27 09:09:58;;;;;;;27.73;6.93;;;24.00;63.20;;;;;;5090530;28;20048;-49
2022/03/27 09:12:24;;;;;;;19.73;6.25;;;24.30;62.10;;;;;;5089883;28;20071;-49
2022/03/27 09:14:50;;;;;;;23.45;6.55;;;24.10;58.70;;;;;;5089888;28;20052;-50
2022/03/27 09:17:16;;;;;;;30.15;8.00;;;24.50;58.70;;;;;;5089874;28;20044;-49
2022/03/27 09:19:47;;;;;;;24.60;7.00;;;24.50;57.80;;;;;;5089768;28;20036;-48
2022/03/27 09:22:16;;;;;;;28.02;7.65;;;25.00;56.50;;;;;;5089579;28;20044;-49
2022/03/27 09:24:46;;;;;;;29.55;7.68;;;25.40;55.20;;;;;;5089555;28;20044;-49
2022/03/27 09:27:12;;;;;;;19.02;5.35;;;25.60;54.20;;;;;;5071174;28;20599;-50
2022/03/27 09:29:59;;;;;;;23.88;8.15;;;25.60;53.30;;;;;;5089241;28;20047;-49
2022/03/27 09:32:35;;;;;;;24.75;7.35;;;25.30;50.40;;;;;;5089249;28;20055;-49
2022/03/27 09:35:08;;;;;;;27.88;6.70;;;25.50;52.90;;;;;;5089315;28;20478;-49
2022/03/27 09:37:41;;;;;;;21.63;6.93;;;25.80;51.20;;;;;;5089175;28;20044;-52
2022/03/27 09:40:08;;;;;;;21.98;6.72;;;25.30;50.20;;;;;;5089124;28;20127;-49
2022/03/27 09:42:37;;;;;;;26.10;8.05;;;25.50;51.30;;;;;;5088358;28;20503;-52
2022/03/27 09:45:19;;;;;;;22.70;8.10;;;25.50;50.70;;;;;;5089532;28;20070;-53
2022/03/27 09:47:55;;;;;;;25.08;7.35;;;24.90;50.00;;;;;;5089026;28;20046;-52
2022/03/27 09:50:35;;;;;;;20.63;7.35;;;24.20;51.10;;;;;;5088351;28;20062;-49
2022/03/27 09:53:22;;;;;;;26.48;8.80;;;22.90;50.40;;;;;;5089292;28;20079;-52
2022/03/27 09:56:11;;;;;;;23.42;6.57;;;22.20;48.60;;;;;;5089005;28;20053;-49
2022/03/27 09:58:43;;;;;;;27.17;8.07;;;22.30;52.00;;;;;;5088673;28;20170;-51
2022/03/27 10:01:17;;;;;;;24.02;7.07;;;22.20;53.60;;;;;;5089047;28;20047;-50
2022/03/27 10:03:58;;;;;;;27.48;7.50;;;22.20;53.40;;;;;;5089140;28;20044;-51
2022/03/27 10:06:35;;;;;;;25.27;7.13;;;22.90;51.90;;;;;;5070558;28;20036;-51
2022/03/27 10:09:03;;;;;;;21.65;6.25;;;23.20;51.00;;;;;;5088950;28;20612;-52
2022/03/27 10:11:29;;;;;;;21.55;5.88;;;23.30;51.00;;;;;;5089011;28;20039;-51
2022/03/27 10:13:56;;;;;;;21.33;7.05;;;23.50;50.30;;;;;;5088917;28;20036;-52
2022/03/27 10:16:28;;;;;;;20.60;5.70;;;23.90;51.40;;;;;;5088707;28;20072;-52
2022/03/27 10:19:15;;;;;;;20.65;5.35;;;24.60;51.00;;;;;;5089326;28;20040;-52
2022/03/27 10:21:43;;;;;;;21.42;6.00;;;25.30;49.60;;;;;;5036844;28;20131;-52
2022/03/27 10:24:13;;;;;;;20.58;6.18;;;25.30;47.50;;;;;;5089035;28;20043;-49
2022/03/27 10:26:40;;;;;;;19.35;5.53;;;25.40;46.90;;;;;;5088387;28;20051;-51
2022/03/27 10:29:07;;;;;;;19.80;5.78;;;25.40;47.40;;;;;;5088565;28;20486;-50
2022/03/27 10:31:33;;;;;;;21.85;5.28;;;25.70;46.70;;;;;;5088756;28;20044;-52
2022/03/27 10:34:01;;;;;;;23.55;6.18;;;25.90;46.50;;;;;;5088953;28;20491;-50
2022/03/27 10:36:45;;;;;;;20.23;6.38;;;26.20;46.10;;;;;;5070923;28;20055;-51
2022/03/27 10:39:25;;;;;;;22.58;6.53;;;26.10;45.40;;;;;;5088602;28;20051;-49
2022/03/27 10:42:09;;;;;;;22.42;5.97;;;25.50;43.90;;;;;;5085215;28;20040;-57
2022/03/27 10:44:53;;;;;;;20.25;5.05;;;25.50;44.50;;;;;;5085779;28;20055;-49
2022/03/27 10:47:24;;;;;;;23.98;5.20;;;25.70;44.80;;;;;;5091433;28;20051;-47
2022/03/27 10:50:02;;;;;;;17.97;4.63;;;25.20;43.30;;;;;;5092434;28;20052;-50
2022/03/27 10:52:36;;;;;;;19.40;4.93;;;23.50;44.50;;;;;;5091945;28;20050;-48
2022/03/27 10:55:14;;;;;;;24.48;6.25;;;22.00;46.10;;;;;;5073919;28;20416;-47
2022/03/27 10:57:51;;;;;;;20.92;5.15;;;20.70;48.10;;;;;;5090670;28;20541;-47
2022/03/27 11:00:40;;;;;;;22.48;6.18;;;19.70;49.70;;;;;;5074158;28;20084;-49
2022/03/27 11:03:06;;;;;;;22.15;5.10;;;18.90;52.30;;;;;;5092333;28;20040;-51
2022/03/27 11:05:35;;;;;;;19.48;4.65;;;18.30;52.60;;;;;;5092120;28;20047;-51
2022/03/27 11:08:16;;;;;;;24.42;6.32;;;17.70;53.20;;;;;;5092172;28;20048;-49
2022/03/27 11:10:43;;;;;;;22.33;5.72;;;17.10;54.30;;;;;;5092229;28;20358;-48
2022/03/27 11:13:39;;;;;;;20.45;4.85;;;16.70;54.90;;;;;;5092251;28;20432;-48
2022/03/27 11:16:06;;;;;;;18.40;4.15;;;16.40;53.90;;;;;;5092067;28;20048;-47
2022/03/27 11:18:44;;;;;;;22.15;5.93;;;16.00;54.90;;;;;;5092146;28;20032;-47
2022/03/27 11:21:34;;;;;;;24.58;5.45;;;15.70;56.20;;;;;;5092809;28;20111;-48
2022/03/27 11:24:03;;;;;;;29.23;6.72;;;15.50;57.60;;;;;;5078448;28;20087;-47
2022/03/27 11:26:31;;;;;;;25.20;6.75;;;15.30;58.00;;;;;;5092284;28;20039;-49
2022/03/27 11:29:18;;;;;;;25.45;5.63;;;15.10;58.60;;;;;;5092307;28;20070;-50
2022/03/27 11:31:44;;;;;;;18.90;4.60;;;15.00;59.30;;;;;;5091663;28;20402;-47
2022/03/27 11:34:14;;;;;;;22.80;5.07;;;14.90;59.90;;;;;;5091963;28;20231;-49
2022/03/27 11:36:48;;;;;;;23.98;4.90;;;14.80;59.70;;;;;;5091801;28;20057;-48
2022/03/27 11:39:29;;;;;;;20.83;4.82;;;14.70;59.50;;;;;;5091951;28;20036;-47
2022/03/27 11:41:54;;;;;;;24.95;3.53;;;14.60;60.10;;;;;;5091649;28;20097;-47
2022/03/27 11:47:06;;;;;;;25.77;5.07;;;14.30;60.40;;;;;;5091499;28;20051;-48
2022/03/27 11:49:37;;;;;;;23.77;5.28;;;14.40;60.10;;;;;;5091617;28;20044;-50
2022/03/27 11:52:08;;;;;;;19.13;4.93;;;14.40;60.90;;;;;;5091424;28;20043;-52
2022/03/27 11:54:35;;;;;;;16.00;3.95;;;14.40;61.30;;;;;;5091316;28;20083;-48
2022/03/27 11:57:02;;;;;;;25.95;5.75;;;14.30;61.40;;;;;;5090027;28;20039;-47
2022/03/27 11:59:28;;;;;;;24.52;5.25;;;14.30;62.00;;;;;;5090858;28;20109;-51
2022/03/27 12:01:57;;;;;;;27.13;5.13;;;14.20;62.00;;;;;;5090775;28;20036;-47
2022/03/27 12:04:23;;;;;;;22.95;4.95;;;14.20;62.60;;;;;;5090843;28;20121;-49
2022/03/27 12:06:59;;;;;;;16.75;4.63;;;14.30;62.50;;;;;;5090555;28;20146;-48
2022/03/27 12:09:30;;;;;;;20.58;3.55;;;14.20;62.60;;;;;;5091359;28;20046;-47
2022/03/27 12:12:14;;;;;;;21.42;4.15;;;14.30;62.60;;;;;;5091029;28;20144;-48
2022/03/27 12:15:04;;;;;;;31.00;4.70;;;14.20;61.60;;;;;;5091218;28;20043;-49
2022/03/27 12:17:32;;;;;;;22.67;5.28;;;14.20;62.10;;;;;;5091094;28;20401;-49
2022/03/27 12:20:08;;;;;;;20.15;4.57;;;14.20;61.90;;;;;;5090963;28;20075;-50
2022/03/27 12:22:41;;;;;;;20.90;3.90;;;14.20;62.90;;;;;;5090863;28;20044;-46
2022/03/27 12:25:30;;;;;;;15.98;4.00;;;14.20;62.90;;;;;;5091163;28;20055;-51
2022/03/27 12:30:52;;;;;;;19.30;3.88;;;14.30;61.30;;;;;;5090651;28;20078;-47
2022/03/27 12:33:20;;;;;;;21.95;3.65;;;14.30;61.40;;;;;;5090664;28;20467;-48
2022/03/27 12:35:47;;;;;;;22.15;3.92;;;14.30;61.60;;;;;;5090482;28;20048;-48
2022/03/27 12:38:28;;;;;;;14.02;2.90;;;14.30;61.90;;;;;;5090830;28;20055;-48
2022/03/27 12:40:54;;;;;;;17.17;4.20;;;14.20;61.60;;;;;;5090421;28;20079;-47
2022/03/27 12:43:21;;;;;;;18.13;3.17;;;14.20;61.40;;;;;;5090250;28;20067;-47
2022/03/27 12:45:47;;;;;;;22.40;4.78;;;14.30;61.20;;;;;;5090565;28;20051;-48
2022/03/27 12:48:21;;;;;;;14.15;3.53;;;14.30;61.70;;;;;;5090040;28;20043;-48
2022/03/27 12:50:50;;;;;;;19.25;3.88;;;14.30;61.70;;;;;;5090387;28;20122;-48
2022/03/27 12:53:19;;;;;;;22.25;4.90;;;14.60;62.10;;;;;;5071954;28;20062;-47
2022/03/27 12:55:46;;;;;;;20.02;3.70;;;14.30;61.70;;;;;;5089993;28;20052;-48
2022/03/27 12:58:14;;;;;;;22.55;3.83;;;14.30;62.00;;;;;;5090124;28;20044;-48